Pensacola, FL

11:46 PM CDT on July 29, 2016 (GMT -0500)
Amberwood | | Change Station

Elev 43 ft 30.40 °N, 87.30 °W | Updated 8 minutes ago

Clear
Clear
77.7 °F
Feels Like 80 °F
N
0.0
Wind Variable Wind from SE

Today
High -- | Low -- °F
--% Chance of Precip.
Yesterday
High -- | Low -- °F
Precip. -- in
Pressure 30.02 in
Visibility 10.0 miles
Clouds Clear
Heat Index 80 °F
Dew Point 75 °F
Humidity 91%
Rainfall 1.18 in
Snow Depth Not available.
6:06 AM 7:45 PM
Waning Crescent, 16% visible
METAR KNPA 300356Z AUTO 00000KT 10SM CLR 26/24 A3002 RMK AO2 SLP166 T02610244
Pressure 30.02 in
Visibility 10.0 miles
Clouds Clear
Heat Index 80 °F
Dew Point 75 °F
Humidity 91%
Rainfall 1.18 in
Snow Depth Not available.
6:06 AM 7:45 PM
Waning Crescent, 16% visible
METAR KNPA 300356Z AUTO 00000KT 10SM CLR 26/24 A3002 RMK AO2 SLP166 T02610244

10-Day Weather Forecast

Almanac

Astronomy

Jul. 29, 2016 Rise Set
Actual Time
Civil Twilight
Nautical Twilight
Astronomical Twilight
Moon
Length of Visible Light
Length of Day
Tomorrow will be .
, % of the Moon is Illuminated

Today's Extremes

State Highs State Lows

Community

WunderPhotos

Upload Photos

1,928,506 photos uploaded!

WunderBlog® & News

Nearby

Air Quality

  Air Quality AQ Index Pollutant
Not available.

Snow Depth

Station Depth Elevation

Earthquake Activity

City Distance Mag. Time & Date
Minimum magnitude displayed is 2.5.

Coastal Water Temperatures

Place Temperature

Stations

Nearby Weather Stations

Station Location Temp. Windchill Dew Point Humidity Wind Precip. Elev Updated Type
                   

Watches & Warnings

There are currently no watches in effect.